sensor_id;sensor_type;location;lat;lon;timestamp;pressure;altitude;pressure_sealevel;temperature;humidity
11444;BME280;5778;47.856;12.154;2023-03-18T00:00:40;95922.72;;;4.97;100.00
11444;BME280;5778;47.856;12.154;2023-03-18T00:03:08;95923.47;;;4.74;100.00
11444;BME280;5778;47.856;12.154;2023-03-18T00:05:35;95928.63;;;4.81;100.00
11444;BME280;5778;47.856;12.154;2023-03-18T00:08:04;95937.03;;;5.01;100.00
11444;BME280;5778;47.856;12.154;2023-03-18T00:10:33;95928.03;;;4.79;100.00
11444;BME280;5778;47.856;12.154;2023-03-18T00:13:02;95935.59;;;4.75;100.00
11444;BME280;5778;47.856;12.154;2023-03-18T00:15:30;95933.13;;;4.51;100.00
11444;BME280;5778;47.856;12.154;2023-03-18T00:17:57;95942.41;;;4.53;100.00
11444;BME280;5778;47.856;12.154;2023-03-18T00:20:25;95940.34;;;4.26;100.00
11444;BME280;5778;47.856;12.154;2023-03-18T00:23:04;95947.22;;;4.27;100.00
11444;BME280;5778;47.856;12.154;2023-03-18T00:25:34;95950.91;;;4.37;100.00
11444;BME280;5778;47.856;12.154;2023-03-18T00:28:02;95944.53;;;4.45;100.00
11444;BME280;5778;47.856;12.154;2023-03-18T00:30:29;95942.63;;;4.52;100.00
11444;BME280;5778;47.856;12.154;2023-03-18T00:32:56;95946.75;;;4.59;100.00
11444;BME280;5778;47.856;12.154;2023-03-18T00:35:24;95949.66;;;4.58;100.00
11444;BME280;5778;47.856;12.154;2023-03-18T00:37:52;95948.78;;;4.46;100.00
11444;BME280;5778;47.856;12.154;2023-03-18T00:40:20;95947.31;;;4.50;100.00
11444;BME280;5778;47.856;12.154;2023-03-18T00:42:54;95950.50;;;4.52;100.00
11444;BME280;5778;47.856;12.154;2023-03-18T00:45:32;95946.47;;;4.38;100.00
11444;BME280;5778;47.856;12.154;2023-03-18T00:47:59;95954.34;;;4.38;100.00
11444;BME280;5778;47.856;12.154;2023-03-18T00:50:26;95949.69;;;4.22;100.00
11444;BME280;5778;47.856;12.154;2023-03-18T00:52:53;95950.13;;;4.37;100.00
11444;BME280;5778;47.856;12.154;2023-03-18T00:55:21;95956.72;;;4.28;100.00
11444;BME280;5778;47.856;12.154;2023-03-18T00:57:49;95950.41;;;4.29;100.00
11444;BME280;5778;47.856;12.154;2023-03-18T01:00:19;95954.53;;;4.25;100.00
11444;BME280;5778;47.856;12.154;2023-03-18T01:02:46;95950.72;;;4.03;100.00
11444;BME280;5778;47.856;12.154;2023-03-18T01:05:13;95944.91;;;4.01;100.00
11444;BME280;5778;47.856;12.154;2023-03-18T01:07:41;95952.25;;;4.10;100.00
11444;BME280;5778;47.856;12.154;2023-03-18T01:10:09;95943.88;;;4.02;100.00
11444;BME280;5778;47.856;12.154;2023-03-18T01:12:37;95948.97;;;3.97;100.00
11444;BME280;5778;47.856;12.154;2023-03-18T01:15:07;95949.72;;;4.04;100.00
11444;BME280;5778;47.856;12.154;2023-03-18T01:17:36;95954.19;;;3.85;100.00
11444;BME280;5778;47.856;12.154;2023-03-18T01:20:04;95947.09;;;3.86;100.00
11444;BME280;5778;47.856;12.154;2023-03-18T01:22:31;95950.44;;;3.75;100.00
11444;BME280;5778;47.856;12.154;2023-03-18T01:24:58;95951.00;;;3.59;100.00
11444;BME280;5778;47.856;12.154;2023-03-18T01:27:32;95960.38;;;3.73;100.00
11444;BME280;5778;47.856;12.154;2023-03-18T01:29:59;95954.09;;;3.74;100.00
11444;BME280;5778;47.856;12.154;2023-03-18T01:32:26;95949.72;;;3.68;100.00
11444;BME280;5778;47.856;12.154;2023-03-18T01:34:57;95950.16;;;3.83;100.00
11444;BME280;5778;47.856;12.154;2023-03-18T01:37:25;95957.19;;;3.89;100.00
11444;BME280;5778;47.856;12.154;2023-03-18T01:40:06;95957.09;;;3.77;100.00
11444;BME280;5778;47.856;12.154;2023-03-18T01:42:33;95948.47;;;3.70;100.00
11444;BME280;5778;47.856;12.154;2023-03-18T01:45:17;95952.34;;;3.68;100.00
11444;BME280;5778;47.856;12.154;2023-03-18T01:47:48;95950.22;;;3.76;100.00
11444;BME280;5778;47.856;12.154;2023-03-18T01:50:21;95949.44;;;3.76;100.00
11444;BME280;5778;47.856;12.154;2023-03-18T01:52:52;95948.84;;;3.74;100.00
11444;BME280;5778;47.856;12.154;2023-03-18T01:55:23;95954.19;;;3.85;100.00
11444;BME280;5778;47.856;12.154;2023-03-18T01:57:51;95957.53;;;3.92;100.00
11444;BME280;5778;47.856;12.154;2023-03-18T02:00:19;95965.16;;;4.00;100.00
11444;BME280;5778;47.856;12.154;2023-03-18T02:02:48;95949.78;;;3.97;100.00
11444;BME280;5778;47.856;12.154;2023-03-18T02:05:21;95961.00;;;3.93;100.00
11444;BME280;5778;47.856;12.154;2023-03-18T02:07:48;95961.69;;;3.64;100.00
11444;BME280;5778;47.856;12.154;2023-03-18T02:10:18;95958.41;;;3.68;100.00
11444;BME280;5778;47.856;12.154;2023-03-18T02:12:49;95956.78;;;3.49;100.00
11444;BME280;5778;47.856;12.154;2023-03-18T02:15:24;95961.31;;;3.60;100.00
11444;BME280;5778;47.856;12.154;2023-03-18T02:17:57;95964.16;;;3.59;100.00
11444;BME280;5778;47.856;12.154;2023-03-18T02:20:38;95969.13;;;3.49;100.00
11444;BME280;5778;47.856;12.154;2023-03-18T02:23:24;95965.78;;;3.60;100.00
11444;BME280;5778;47.856;12.154;2023-03-18T02:26:00;95967.69;;;3.28;100.00
11444;BME280;5778;47.856;12.154;2023-03-18T02:28:30;95977.13;;;3.36;100.00
11444;BME280;5778;47.856;12.154;2023-03-18T02:31:03;95976.59;;;3.27;100.00
11444;BME280;5778;47.856;12.154;2023-03-18T02:33:34;95985.13;;;3.23;100.00
11444;BME280;5778;47.856;12.154;2023-03-18T02:36:05;95989.34;;;3.24;100.00
11444;BME280;5778;47.856;12.154;2023-03-18T02:38:40;95993.56;;;3.25;100.00
11444;BME280;5778;47.856;12.154;2023-03-18T02:41:13;95991.69;;;3.07;100.00
11444;BME280;5778;47.856;12.154;2023-03-18T02:43:43;95993.53;;;3.07;100.00
11444;BME280;5778;47.856;12.154;2023-03-18T02:46:22;95988.44;;;3.12;100.00
11444;BME280;5778;47.856;12.154;2023-03-18T02:48:52;95998.78;;;3.07;100.00
11444;BME280;5778;47.856;12.154;2023-03-18T02:51:20;96003.19;;;3.13;100.00
11444;BME280;5778;47.856;12.154;2023-03-18T02:53:47;95995.25;;;3.19;100.00
11444;BME280;5778;47.856;12.154;2023-03-18T02:56:15;96002.91;;;3.21;100.00
11444;BME280;5778;47.856;12.154;2023-03-18T02:58:44;96016.19;;;3.26;100.00
11444;BME280;5778;47.856;12.154;2023-03-18T03:01:13;96013.28;;;3.16;100.00
11444;BME280;5778;47.856;12.154;2023-03-18T03:03:42;95994.19;;;3.27;100.00
11444;BME280;5778;47.856;12.154;2023-03-18T03:06:10;96019.38;;;3.34;100.00
11444;BME280;5778;47.856;12.154;2023-03-18T03:08:38;96017.91;;;3.63;100.00
11444;BME280;5778;47.856;12.154;2023-03-18T03:11:05;96017.34;;;3.61;100.00
11444;BME280;5778;47.856;12.154;2023-03-18T03:13:37;96025.41;;;3.84;100.00
11444;BME280;5778;47.856;12.154;2023-03-18T03:16:08;96024.84;;;3.82;100.00
11444;BME280;5778;47.856;12.154;2023-03-18T03:18:35;96024.13;;;3.93;100.00
11444;BME280;5778;47.856;12.154;2023-03-18T03:21:02;96028.34;;;3.94;100.00
11444;BME280;5778;47.856;12.154;2023-03-18T03:23:31;96027.81;;;3.85;100.00
11444;BME280;5778;47.856;12.154;2023-03-18T03:25:58;96027.00;;;3.85;100.00
11444;BME280;5778;47.856;12.154;2023-03-18T03:28:25;96037.84;;;3.52;100.00
11444;BME280;5778;47.856;12.154;2023-03-18T03:30:53;96036.75;;;3.60;100.00
11444;BME280;5778;47.856;12.154;2023-03-18T03:33:23;96032.59;;;3.52;100.00
11444;BME280;5778;47.856;12.154;2023-03-18T03:35:50;96046.97;;;3.19;100.00
11444;BME280;5778;47.856;12.154;2023-03-18T03:38:17;96047.50;;;3.03;100.00
11444;BME280;5778;47.856;12.154;2023-03-18T03:40:45;96042.91;;;3.23;100.00
11444;BME280;5778;47.856;12.154;2023-03-18T03:43:14;96059.53;;;3.17;100.00
11444;BME280;5778;47.856;12.154;2023-03-18T03:45:42;96061.72;;;3.20;100.00
11444;BME280;5778;47.856;12.154;2023-03-18T03:48:10;96035.41;;;3.26;100.00
11444;BME280;5778;47.856;12.154;2023-03-18T03:50:40;96063.31;;;3.52;100.00
11444;BME280;5778;47.856;12.154;2023-03-18T03:53:07;96068.72;;;3.57;100.00
11444;BME280;5778;47.856;12.154;2023-03-18T03:55:34;96068.03;;;3.68;100.00
11444;BME280;5778;47.856;12.154;2023-03-18T03:58:02;96069.38;;;3.77;100.00
11444;BME280;5778;47.856;12.154;2023-03-18T04:00:30;96073.59;;;3.78;100.00
11444;BME280;5778;47.856;12.154;2023-03-18T04:02:58;96068.34;;;3.78;100.00
11444;BME280;5778;47.856;12.154;2023-03-18T04:05:26;96075.50;;;3.71;100.00
11444;BME280;5778;47.856;12.154;2023-03-18T04:07:58;96064.69;;;3.79;100.00
11444;BME280;5778;47.856;12.154;2023-03-18T04:10:34;96077.53;;;3.69;100.00
11444;BME280;5778;47.856;12.154;2023-03-18T04:13:03;96062.38;;;3.89;100.00
11444;BME280;5778;47.856;12.154;2023-03-18T04:15:30;96065.84;;;3.89;100.00
11444;BME280;5778;47.856;12.154;2023-03-18T04:18:03;96062.09;;;3.97;100.00
11444;BME280;5778;47.856;12.154;2023-03-18T04:20:33;96071.19;;;3.76;100.00
11444;BME280;5778;47.856;12.154;2023-03-18T04:23:06;96067.50;;;3.84;100.00
11444;BME280;5778;47.856;12.154;2023-03-18T04:25:34;96059.44;;;3.79;100.00
11444;BME280;5778;47.856;12.154;2023-03-18T04:28:02;96075.16;;;3.85;100.00
11444;BME280;5778;47.856;12.154;2023-03-18T04:30:30;96063.88;;;4.21;100.00
11444;BME280;5778;47.856;12.154;2023-03-18T04:33:02;96069.56;;;4.00;100.00
11444;BME280;5778;47.856;12.154;2023-03-18T04:35:31;96060.66;;;4.19;100.00
11444;BME280;5778;47.856;12.154;2023-03-18T04:37:58;96061.78;;;4.11;100.00
11444;BME280;5778;47.856;12.154;2023-03-18T04:40:27;96065.41;;;4.10;100.00
11444;BME280;5778;47.856;12.154;2023-03-18T04:42:55;96061.31;;;4.14;100.00
11444;BME280;5778;47.856;12.154;2023-03-18T04:45:25;96072.38;;;3.80;100.00
11444;BME280;5778;47.856;12.154;2023-03-18T04:47:55;96073.13;;;3.87;100.00
11444;BME280;5778;47.856;12.154;2023-03-18T04:50:23;96081.13;;;3.74;100.00
11444;BME280;5778;47.856;12.154;2023-03-18T04:52:51;96077.09;;;3.72;100.00
11444;BME280;5778;47.856;12.154;2023-03-18T04:55:22;96081.19;;;3.68;100.00
11444;BME280;5778;47.856;12.154;2023-03-18T04:57:51;96078.13;;;3.71;100.00
11444;BME280;5778;47.856;12.154;2023-03-18T05:00:21;96079.72;;;3.72;100.00
11444;BME280;5778;47.856;12.154;2023-03-18T05:02:55;96077.25;;;3.77;100.00
11444;BME280;5778;47.856;12.154;2023-03-18T05:05:24;96079.00;;;3.65;100.00
11444;BME280;5778;47.856;12.154;2023-03-18T05:07:51;96073.97;;;3.57;100.00
11444;BME280;5778;47.856;12.154;2023-03-18T05:10:20;96077.09;;;3.47;100.00
11444;BME280;5778;47.856;12.154;2023-03-18T05:12:48;96080.13;;;3.44;100.00
11444;BME280;5778;47.856;12.154;2023-03-18T05:15:25;96079.72;;;3.47;100.00
11444;BME280;5778;47.856;12.154;2023-03-18T05:17:55;96074.41;;;3.54;100.00
11444;BME280;5778;47.856;12.154;2023-03-18T05:20:22;96069.41;;;3.46;100.00
11444;BME280;5778;47.856;12.154;2023-03-18T05:22:50;96060.63;;;3.34;100.00
11444;BME280;5778;47.856;12.154;2023-03-18T05:25:28;96065.78;;;3.47;100.00
11444;BME280;5778;47.856;12.154;2023-03-18T05:27:55;96064.75;;;3.48;100.00
11444;BME280;5778;47.856;12.154;2023-03-18T05:30:32;96072.75;;;3.35;100.00
11444;BME280;5778;47.856;12.154;2023-03-18T05:33:00;96076.75;;;3.37;100.00
11444;BME280;5778;47.856;12.154;2023-03-18T05:35:42;96073.56;;;3.60;100.00
11444;BME280;5778;47.856;12.154;2023-03-18T05:38:09;96079.00;;;3.65;100.00
11444;BME280;5778;47.856;12.154;2023-03-18T05:40:36;96082.19;;;3.67;100.00
11444;BME280;5778;47.856;12.154;2023-03-18T05:43:14;96073.97;;;3.57;100.00
11444;BME280;5778;47.856;12.154;2023-03-18T05:45:49;96079.56;;;3.67;100.00
11444;BME280;5778;47.856;12.154;2023-03-18T05:48:20;96086.88;;;3.65;100.00
11444;BME280;5778;47.856;12.154;2023-03-18T05:50:51;96086.88;;;3.89;100.00
11444;BME280;5778;47.856;12.154;2023-03-18T05:53:23;96082.25;;;4.03;100.00
11444;BME280;5778;47.856;12.154;2023-03-18T05:55:59;96084.91;;;4.03;100.00
11444;BME280;5778;47.856;12.154;2023-03-18T05:58:26;96075.75;;;4.05;100.00
11444;BME280;5778;47.856;12.154;2023-03-18T06:01:07;96083.81;;;4.10;100.00
11444;BME280;5778;47.856;12.154;2023-03-18T06:03:34;96082.22;;;4.09;100.00
11444;BME280;5778;47.856;12.154;2023-03-18T06:06:01;96076.16;;;4.09;100.00
11444;BME280;5778;47.856;12.154;2023-03-18T06:08:28;96076.22;;;4.20;100.00
11444;BME280;5778;47.856;12.154;2023-03-18T06:10:56;96084.22;;;4.14;100.00
11444;BME280;5778;47.856;12.154;2023-03-18T06:13:24;96076.38;;;4.25;100.00
11444;BME280;5778;47.856;12.154;2023-03-18T06:15:55;96077.63;;;4.23;100.00
11444;BME280;5778;47.856;12.154;2023-03-18T06:18:24;96076.44;;;4.19;100.00
11444;BME280;5778;47.856;12.154;2023-03-18T06:20:53;96081.94;;;4.35;100.00
11444;BME280;5778;47.856;12.154;2023-03-18T06:23:20;96079.97;;;4.49;100.00
11444;BME280;5778;47.856;12.154;2023-03-18T06:25:48;96089.47;;;4.50;100.00
11444;BME280;5778;47.856;12.154;2023-03-18T06:28:17;96078.06;;;4.56;100.00
11444;BME280;5778;47.856;12.154;2023-03-18T06:30:45;96077.84;;;4.57;100.00
11444;BME280;5778;47.856;12.154;2023-03-18T06:33:13;96077.25;;;4.73;100.00
11444;BME280;5778;47.856;12.154;2023-03-18T06:35:43;96076.78;;;4.76;100.00
11444;BME280;5778;47.856;12.154;2023-03-18T06:38:09;96082.69;;;4.90;100.00
11444;BME280;5778;47.856;12.154;2023-03-18T06:40:39;96082.69;;;5.08;100.00
11444;BME280;5778;47.856;12.154;2023-03-18T06:43:07;96084.22;;;5.27;100.00
11444;BME280;5778;47.856;12.154;2023-03-18T06:45:38;96087.25;;;5.42;100.00
11444;BME280;5778;47.856;12.154;2023-03-18T06:48:07;96087.03;;;5.55;100.00
11444;BME280;5778;47.856;12.154;2023-03-18T06:50:39;96084.78;;;5.70;100.00
11444;BME280;5778;47.856;12.154;2023-03-18T06:53:15;96082.66;;;5.90;100.00
11444;BME280;5778;47.856;12.154;2023-03-18T06:55:45;96083.13;;;5.98;100.00
11444;BME280;5778;47.856;12.154;2023-03-18T06:58:13;96080.97;;;6.07;100.00
11444;BME280;5778;47.856;12.154;2023-03-18T07:00:49;96082.69;;;6.24;100.00
11444;BME280;5778;47.856;12.154;2023-03-18T07:03:26;96081.16;;;6.40;100.00
11444;BME280;5778;47.856;12.154;2023-03-18T07:05:54;96095.38;;;6.62;100.00
11444;BME280;5778;47.856;12.154;2023-03-18T07:08:23;96086.50;;;6.68;100.00
11444;BME280;5778;47.856;12.154;2023-03-18T07:10:51;96091.56;;;6.81;100.00
11444;BME280;5778;47.856;12.154;2023-03-18T07:13:19;96092.88;;;6.95;100.00
11444;BME280;5778;47.856;12.154;2023-03-18T07:15:46;96086.03;;;7.10;100.00
11444;BME280;5778;47.856;12.154;2023-03-18T07:18:13;96087.66;;;7.11;100.00
11444;BME280;5778;47.856;12.154;2023-03-18T07:20:40;96085.47;;;7.08;100.00
11444;BME280;5778;47.856;12.154;2023-03-18T07:23:07;96087.69;;;7.28;100.00
11444;BME280;5778;47.856;12.154;2023-03-18T07:25:36;96087.97;;;7.43;100.00
11444;BME280;5778;47.856;12.154;2023-03-18T07:28:03;96090.41;;;7.61;100.00
11444;BME280;5778;47.856;12.154;2023-03-18T07:30:30;96092.09;;;7.67;100.00
11444;BME280;5778;47.856;12.154;2023-03-18T07:32:58;96086.19;;;7.76;100.00
11444;BME280;5778;47.856;12.154;2023-03-18T07:35:26;96084.50;;;7.87;100.00
11444;BME280;5778;47.856;12.154;2023-03-18T07:37:53;96097.09;;;8.13;100.00
11444;BME280;5778;47.856;12.154;2023-03-18T07:40:21;96091.47;;;8.26;100.00
11444;BME280;5778;47.856;12.154;2023-03-18T07:42:50;96093.81;;;8.39;100.00
11444;BME280;5778;47.856;12.154;2023-03-18T07:45:18;96093.66;;;8.29;100.00
11444;BME280;5778;47.856;12.154;2023-03-18T07:47:45;96088.38;;;8.50;100.00
11444;BME280;5778;47.856;12.154;2023-03-18T07:50:12;96090.81;;;8.73;100.00
11444;BME280;5778;47.856;12.154;2023-03-18T07:52:39;96092.31;;;8.86;100.00
11444;BME280;5778;47.856;12.154;2023-03-18T07:55:07;96086.31;;;9.17;100.00
11444;BME280;5778;47.856;12.154;2023-03-18T07:57:35;96095.59;;;9.41;100.00
11444;BME280;5778;47.856;12.154;2023-03-18T08:00:05;96089.75;;;9.39;100.00
11444;BME280;5778;47.856;12.154;2023-03-18T08:02:38;96090.84;;;9.69;100.00
11444;BME280;5778;47.856;12.154;2023-03-18T08:05:06;96090.22;;;9.89;100.00
11444;BME280;5778;47.856;12.154;2023-03-18T08:07:33;96081.44;;;10.15;100.00
11444;BME280;5778;47.856;12.154;2023-03-18T08:10:00;96090.53;;;10.24;100.00
11444;BME280;5778;47.856;12.154;2023-03-18T08:12:28;96078.25;;;10.54;100.00
11444;BME280;5778;47.856;12.154;2023-03-18T08:14:54;96089.53;;;10.76;100.00
11444;BME280;5778;47.856;12.154;2023-03-18T08:17:24;96083.41;;;10.81;100.00
11444;BME280;5778;47.856;12.154;2023-03-18T08:19:51;96079.41;;;10.73;100.00
11444;BME280;5778;47.856;12.154;2023-03-18T08:22:18;96089.34;;;10.98;100.00
11444;BME280;5778;47.856;12.154;2023-03-18T08:24:45;96089.66;;;11.06;100.00
11444;BME280;5778;47.856;12.154;2023-03-18T08:27:12;96092.09;;;11.13;100.00
11444;BME280;5778;47.856;12.154;2023-03-18T08:29:39;96091.50;;;11.01;100.00
11444;BME280;5778;47.856;12.154;2023-03-18T08:32:07;96091.19;;;10.87;100.00
11444;BME280;5778;47.856;12.154;2023-03-18T08:34:35;96095.34;;;11.30;100.00
11444;BME280;5778;47.856;12.154;2023-03-18T08:37:02;96090.09;;;11.55;100.00
11444;BME280;5778;47.856;12.154;2023-03-18T08:39:30;96088.19;;;11.55;100.00
11444;BME280;5778;47.856;12.154;2023-03-18T08:41:58;96084.28;;;11.83;100.00
11444;BME280;5778;47.856;12.154;2023-03-18T08:44:25;96090.16;;;12.20;100.00
11444;BME280;5778;47.856;12.154;2023-03-18T08:46:52;96088.03;;;12.32;100.00
11444;BME280;5778;47.856;12.154;2023-03-18T08:49:18;96088.56;;;12.39;100.00
11444;BME280;5778;47.856;12.154;2023-03-18T08:51:47;96090.88;;;12.80;100.00
11444;BME280;5778;47.856;12.154;2023-03-18T08:54:13;96086.03;;;12.97;100.00
11444;BME280;5778;47.856;12.154;2023-03-18T08:56:40;96085.50;;;12.95;100.00
11444;BME280;5778;47.856;12.154;2023-03-18T08:59:07;96083.28;;;13.22;100.00
11444;BME280;5778;47.856;12.154;2023-03-18T09:01:35;96076.41;;;13.60;100.00
11444;BME280;5778;47.856;12.154;2023-03-18T09:04:01;96077.78;;;13.52;100.00
11444;BME280;5778;47.856;12.154;2023-03-18T09:06:28;96067.41;;;13.46;100.00
11444;BME280;5778;47.856;12.154;2023-03-18T09:08:57;96064.13;;;13.59;100.00
11444;BME280;5778;47.856;12.154;2023-03-18T09:11:24;96064.91;;;13.64;100.00
11444;BME280;5778;47.856;12.154;2023-03-18T09:13:52;96071.69;;;13.85;100.00
11444;BME280;5778;47.856;12.154;2023-03-18T09:16:19;96071.44;;;13.82;100.00
11444;BME280;5778;47.856;12.154;2023-03-18T09:18:45;96071.81;;;14.04;100.00
11444;BME280;5778;47.856;12.154;2023-03-18T09:21:12;96065.13;;;14.40;100.00
11444;BME280;5778;47.856;12.154;2023-03-18T09:23:39;96066.69;;;14.46;100.00
11444;BME280;5778;47.856;12.154;2023-03-18T09:26:09;96063.75;;;14.71;100.00
11444;BME280;5778;47.856;12.154;2023-03-18T09:28:35;96068.94;;;14.62;100.00
11444;BME280;5778;47.856;12.154;2023-03-18T09:31:02;96063.94;;;14.79;100.00
11444;BME280;5778;47.856;12.154;2023-03-18T09:33:30;96058.97;;;15.15;100.00
11444;BME280;5778;47.856;12.154;2023-03-18T09:35:57;96060.56;;;14.69;100.00
11444;BME280;5778;47.856;12.154;2023-03-18T09:38:24;96058.47;;;14.66;100.00
11444;BME280;5778;47.856;12.154;2023-03-18T09:41:01;96058.91;;;14.73;100.00
11444;BME280;5778;47.856;12.154;2023-03-18T09:43:46;96060.56;;;15.16;100.00
11444;BME280;5778;47.856;12.154;2023-03-18T09:46:24;96053.19;;;15.26;100.00
11444;BME280;5778;47.856;12.154;2023-03-18T09:49:07;96053.53;;;15.43;100.00
11444;BME280;5778;47.856;12.154;2023-03-18T09:51:47;96049.19;;;15.66;100.00
11444;BME280;5778;47.856;12.154;2023-03-18T09:54:30;96045.25;;;15.40;100.00
11444;BME280;5778;47.856;12.154;2023-03-18T09:56:59;96053.38;;;15.53;100.00
11444;BME280;5778;47.856;12.154;2023-03-18T09:59:36;96048.53;;;15.74;100.00
11444;BME280;5778;47.856;12.154;2023-03-18T10:02:07;96058.81;;;15.48;100.00
11444;BME280;5778;47.856;12.154;2023-03-18T10:04:43;96047.19;;;15.58;100.00
11444;BME280;5778;47.856;12.154;2023-03-18T10:07:16;96051.94;;;15.98;100.00
11444;BME280;5778;47.856;12.154;2023-03-18T10:09:48;96054.94;;;16.10;100.00
11444;BME280;5778;47.856;12.154;2023-03-18T10:12:23;96053.56;;;16.12;98.74
11444;BME280;5778;47.856;12.154;2023-03-18T10:15:02;96059.25;;;15.74;86.05
11444;BME280;5778;47.856;12.154;2023-03-18T10:17:34;96058.38;;;16.15;80.74
11444;BME280;5778;47.856;12.154;2023-03-18T10:20:14;96067.66;;;16.04;67.64
11444;BME280;5778;47.856;12.154;2023-03-18T10:22:51;96064.41;;;16.39;60.95
11444;BME280;5778;47.856;12.154;2023-03-18T10:25:25;96066.41;;;16.47;53.41
11444;BME280;5778;47.856;12.154;2023-03-18T10:28:13;96063.75;;;16.61;55.58
11444;BME280;5778;47.856;12.154;2023-03-18T10:30:53;96065.06;;;16.63;52.64
11444;BME280;5778;47.856;12.154;2023-03-18T10:33:33;96070.81;;;16.43;49.77
11444;BME280;5778;47.856;12.154;2023-03-18T10:36:04;96065.91;;;16.91;52.12
11444;BME280;5778;47.856;12.154;2023-03-18T10:38:40;96061.34;;;16.78;46.65
11444;BME280;5778;47.856;12.154;2023-03-18T10:41:15;96060.09;;;16.57;48.50
11444;BME280;5778;47.856;12.154;2023-03-18T10:43:43;96056.09;;;16.41;47.98
11444;BME280;5778;47.856;12.154;2023-03-18T10:46:14;96055.25;;;16.86;48.30
11444;BME280;5778;47.856;12.154;2023-03-18T10:48:44;96045.06;;;17.37;47.22
11444;BME280;5778;47.856;12.154;2023-03-18T10:51:16;96044.59;;;16.81;45.84
11444;BME280;5778;47.856;12.154;2023-03-18T10:54:14;96040.53;;;17.24;49.24
11444;BME280;5778;47.856;12.154;2023-03-18T10:56:45;96042.72;;;17.49;49.39
11444;BME280;5778;47.856;12.154;2023-03-18T10:59:15;96029.91;;;17.68;48.20
11444;BME280;5778;47.856;12.154;2023-03-18T11:01:47;96029.66;;;17.56;45.17
11444;BME280;5778;47.856;12.154;2023-03-18T11:04:16;96034.16;;;16.93;46.81
11444;BME280;5778;47.856;12.154;2023-03-18T11:06:48;96022.44;;;17.78;50.71
11444;BME280;5778;47.856;12.154;2023-03-18T11:09:17;96026.75;;;17.66;46.36
11444;BME280;5778;47.856;12.154;2023-03-18T11:11:46;96023.09;;;17.84;46.22
11444;BME280;5778;47.856;12.154;2023-03-18T11:14:14;96020.53;;;18.01;46.79
11444;BME280;5778;47.856;12.154;2023-03-18T11:16:49;96019.41;;;18.24;47.98
11444;BME280;5778;47.856;12.154;2023-03-18T11:19:28;96012.31;;;18.50;46.75
11444;BME280;5778;47.856;12.154;2023-03-18T11:22:09;96006.59;;;18.73;44.82
11444;BME280;5778;47.856;12.154;2023-03-18T11:24:41;96003.50;;;18.58;44.28
11444;BME280;5778;47.856;12.154;2023-03-18T11:27:26;96004.16;;;18.11;47.88
11444;BME280;5778;47.856;12.154;2023-03-18T11:29:56;96000.22;;;18.69;46.36
11444;BME280;5778;47.856;12.154;2023-03-18T11:32:26;95997.75;;;18.51;46.76
11444;BME280;5778;47.856;12.154;2023-03-18T11:34:54;95997.75;;;18.51;47.22
11444;BME280;5778;47.856;12.154;2023-03-18T11:37:28;95993.28;;;19.24;48.78
11444;BME280;5778;47.856;12.154;2023-03-18T11:40:07;96000.50;;;19.54;46.57
11444;BME280;5778;47.856;12.154;2023-03-18T11:42:44;95993.06;;;19.85;45.57
11444;BME280;5778;47.856;12.154;2023-03-18T11:45:44;95994.31;;;20.05;44.41
11444;BME280;5778;47.856;12.154;2023-03-18T11:48:18;95986.13;;;20.56;44.99
11444;BME280;5778;47.856;12.154;2023-03-18T11:51:06;95981.38;;;20.44;42.93
11444;BME280;5778;47.856;12.154;2023-03-18T11:53:52;95978.44;;;20.66;42.75
11444;BME280;5778;47.856;12.154;2023-03-18T11:56:29;95969.50;;;20.83;41.18
11444;BME280;5778;47.856;12.154;2023-03-18T11:59:10;95967.59;;;21.21;42.11
11444;BME280;5778;47.856;12.154;2023-03-18T12:01:48;95962.50;;;20.82;42.29
11444;BME280;5778;47.856;12.154;2023-03-18T12:07:45;95944.97;;;20.50;40.93
11444;BME280;5778;47.856;12.154;2023-03-18T12:10:23;95941.09;;;20.22;42.39
11444;BME280;5778;47.856;12.154;2023-03-18T12:13:08;95928.00;;;20.79;42.57
11444;BME280;5778;47.856;12.154;2023-03-18T12:15:46;95922.66;;;21.08;41.99
11444;BME280;5778;47.856;12.154;2023-03-18T12:18:33;95915.06;;;21.01;44.38
11444;BME280;5778;47.856;12.154;2023-03-18T12:21:10;95918.47;;;21.10;44.32
11444;BME280;5778;47.856;12.154;2023-03-18T12:23:54;95918.91;;;21.41;44.23
11444;BME280;5778;47.856;12.154;2023-03-18T12:26:33;95919.66;;;21.50;42.73
11444;BME280;5778;47.856;12.154;2023-03-18T12:29:24;95919.69;;;21.62;42.18
11444;BME280;5778;47.856;12.154;2023-03-18T12:32:05;95908.59;;;21.35;42.22
11444;BME280;5778;47.856;12.154;2023-03-18T12:34:53;95911.53;;;21.50;39.64
11444;BME280;5778;47.856;12.154;2023-03-18T12:37:35;95909.16;;;21.90;40.33
11444;BME280;5778;47.856;12.154;2023-03-18T12:40:26;95896.81;;;22.25;39.65
11444;BME280;5778;47.856;12.154;2023-03-18T12:43:08;95888.16;;;22.31;38.30
11444;BME280;5778;47.856;12.154;2023-03-18T12:45:44;95892.16;;;22.13;38.75
11444;BME280;5778;47.856;12.154;2023-03-18T12:48:16;95881.34;;;21.40;40.52
11444;BME280;5778;47.856;12.154;2023-03-18T12:50:48;95885.75;;;22.18;41.28
11444;BME280;5778;47.856;12.154;2023-03-18T12:53:22;95880.97;;;22.47;40.02
11444;BME280;5778;47.856;12.154;2023-03-18T12:55:54;95886.66;;;22.22;37.73
11444;BME280;5778;47.856;12.154;2023-03-18T12:58:24;95884.94;;;22.50;39.42
11444;BME280;5778;47.856;12.154;2023-03-18T13:00:58;95877.03;;;22.69;37.57
11444;BME280;5778;47.856;12.154;2023-03-18T13:03:33;95888.31;;;22.71;37.64
11444;BME280;5778;47.856;12.154;2023-03-18T13:06:04;95887.97;;;22.84;37.71
11444;BME280;5778;47.856;12.154;2023-03-18T13:08:58;95886.13;;;23.36;35.45
11444;BME280;5778;47.856;12.154;2023-03-18T13:11:39;95893.19;;;23.65;35.38
11444;BME280;5778;47.856;12.154;2023-03-18T13:14:16;95885.31;;;23.36;37.02
11444;BME280;5778;47.856;12.154;2023-03-18T13:16:46;95889.31;;;23.14;36.62
11444;BME280;5778;47.856;12.154;2023-03-18T13:19:15;95889.81;;;23.56;35.16
11444;BME280;5778;47.856;12.154;2023-03-18T13:21:46;95886.03;;;23.09;34.11